Time;durP1;ratioP1;P1;durP2;ratioP2;P2;SDS_P1;SDS_P2;PMS_P1;PMS_P2;Temp;Humidity;BMP_temperature;BMP_pressure;BME280_temperature;BME280_humidity;BME280_pressure;Samples;Min_cycle;Max_cycle;Signal;HPM_P1;HPM_P2
2023/01/30 00:01:27;;;;;;;21.13;9.73;;;0.60;99.90;;;;;;5091079;28;20110;-73
2023/01/30 00:03:52;;;;;;;21.55;9.88;;;0.60;99.90;;;;;;5094377;28;20032;-73
2023/01/30 00:06:19;;;;;;;21.97;10.43;;;0.60;99.90;;;;;;5113057;28;20494;-73
2023/01/30 00:08:44;;;;;;;20.47;9.90;;;0.60;99.90;;;;;;5078022;28;20111;-74
2023/01/30 00:11:12;;;;;;;19.20;9.43;;;0.50;99.90;;;;;;5108478;28;20099;-73
2023/01/30 00:13:39;;;;;;;20.47;9.70;;;0.50;99.90;;;;;;5082453;28;20455;-73
2023/01/30 00:16:08;;;;;;;21.40;9.80;;;0.50;99.90;;;;;;5112166;28;20027;-73
2023/01/30 00:18:35;;;;;;;19.53;9.27;;;0.40;99.90;;;;;;5078751;28;20119;-73
2023/01/30 00:21:03;;;;;;;20.63;10.00;;;0.40;99.90;;;;;;5090487;28;20088;-73
2023/01/30 00:23:31;;;;;;;19.57;10.20;;;0.40;99.90;;;;;;5080999;28;20420;-73
2023/01/30 00:25:56;;;;;;;18.57;9.20;;;0.40;99.90;;;;;;5088377;28;20032;-74
2023/01/30 00:28:22;;;;;;;23.17;10.20;;;0.30;99.90;;;;;;5074562;28;20031;-73
2023/01/30 00:30:52;;;;;;;21.87;10.20;;;0.20;99.90;;;;;;5083759;28;20034;-74
2023/01/30 00:33:20;;;;;;;22.57;10.37;;;0.20;99.90;;;;;;5089451;28;20403;-72
2023/01/30 00:35:47;;;;;;;21.80;9.97;;;0.10;99.90;;;;;;5083012;28;20028;-75
2023/01/30 00:38:14;;;;;;;23.53;10.57;;;0.20;99.90;;;;;;5081252;28;20093;-73
2023/01/30 00:40:40;;;;;;;23.73;10.17;;;0.20;99.90;;;;;;5108779;28;20453;-73
2023/01/30 00:48:36;;;;;;;21.77;10.30;;;0.10;99.90;;;;;;5092243;28;20085;-73
2023/01/30 00:51:02;;;;;;;23.03;10.13;;;0.20;99.90;;;;;;5092769;28;20027;-73
2023/01/30 00:53:27;;;;;;;24.20;10.30;;;0.20;99.90;;;;;;5087817;28;20067;-73
2023/01/30 00:55:54;;;;;;;22.27;10.27;;;0.20;99.90;;;;;;5084638;28;20023;-73
2023/01/30 00:58:21;;;;;;;21.13;10.67;;;0.20;99.90;;;;;;5094374;28;20027;-73
2023/01/30 01:00:47;;;;;;;24.50;10.07;;;0.20;99.90;;;;;;5111000;28;20027;-74
2023/01/30 01:03:12;;;;;;;24.97;10.97;;;0.20;99.90;;;;;;5104295;28;20035;-73
2023/01/30 01:05:38;;;;;;;24.73;10.70;;;0.20;99.90;;;;;;5099919;28;20027;-73
2023/01/30 01:08:04;;;;;;;25.40;11.13;;;0.20;99.90;;;;;;5093511;28;20038;-73
2023/01/30 01:10:30;;;;;;;23.50;10.73;;;0.20;99.90;;;;;;5112406;28;20045;-73
2023/01/30 01:12:55;;;;;;;20.37;10.20;;;0.20;99.90;;;;;;5093545;28;20080;-73
2023/01/30 01:15:27;;;;;;;23.03;10.43;;;0.20;99.90;;;;;;5112325;28;20027;-73
2023/01/30 01:17:53;;;;;;;22.35;10.05;;;0.20;99.90;;;;;;5093411;28;20465;-73
2023/01/30 01:20:20;;;;;;;24.67;10.43;;;0.20;99.90;;;;;;5090890;28;20054;-73
2023/01/30 01:22:49;;;;;;;26.03;10.87;;;0.20;99.90;;;;;;5090775;28;20032;-74
2023/01/30 01:25:15;;;;;;;21.97;10.37;;;0.30;99.90;;;;;;5090702;28;20040;-73
2023/01/30 01:27:41;;;;;;;24.13;10.60;;;0.30;99.90;;;;;;5090833;28;20527;-73
2023/01/30 01:30:07;;;;;;;23.27;10.13;;;0.30;99.90;;;;;;5091245;28;20036;-72
2023/01/30 01:32:33;;;;;;;24.73;10.93;;;0.40;99.90;;;;;;5090726;28;20039;-72
2023/01/30 01:34:59;;;;;;;25.13;10.20;;;0.30;99.90;;;;;;5089983;28;20454;-73
2023/01/30 01:37:24;;;;;;;25.10;10.83;;;0.30;99.90;;;;;;5092102;28;20099;-73
2023/01/30 01:42:36;;;;;;;27.60;11.50;;;0.40;99.90;;;;;;5092024;28;20038;-73
2023/01/30 01:45:23;;;;;;;24.83;10.77;;;0.40;99.90;;;;;;5094364;28;20032;-73
2023/01/30 01:47:54;;;;;;;24.90;11.40;;;0.40;99.90;;;;;;5094610;28;20035;-75
2023/01/30 01:50:25;;;;;;;30.90;11.40;;;0.40;99.90;;;;;;5095888;28;20102;-73
2023/01/30 01:52:55;;;;;;;27.90;11.00;;;0.40;99.90;;;;;;5095168;28;20031;-73
2023/01/30 01:55:23;;;;;;;26.60;11.17;;;0.40;99.90;;;;;;5094365;28;20024;-73
2023/01/30 01:57:58;;;;;;;24.37;10.43;;;0.40;99.90;;;;;;5094157;28;20024;-74
2023/01/30 02:00:24;;;;;;;22.97;10.30;;;0.40;99.90;;;;;;5094282;28;20028;-73
2023/01/30 02:02:58;;;;;;;24.23;10.10;;;0.40;99.90;;;;;;5094881;28;20085;-74
2023/01/30 02:05:28;;;;;;;23.90;10.37;;;0.50;99.90;;;;;;5095935;28;20393;-73
2023/01/30 02:07:56;;;;;;;25.40;10.73;;;0.50;99.90;;;;;;5095908;28;20488;-74
2023/01/30 02:10:28;;;;;;;21.53;9.30;;;0.40;99.90;;;;;;5094430;28;20034;-73
2023/01/30 02:12:53;;;;;;;22.60;9.05;;;0.40;99.90;;;;;;5094491;28;20028;-74
2023/01/30 02:15:19;;;;;;;20.17;8.93;;;0.40;99.90;;;;;;5094431;28;20499;-72
2023/01/30 02:17:45;;;;;;;18.23;8.93;;;0.40;99.90;;;;;;5094271;28;20056;-72
2023/01/30 02:20:26;;;;;;;22.60;10.03;;;0.40;99.90;;;;;;5093480;28;20051;-73
2023/01/30 02:23:13;;;;;;;20.13;9.20;;;0.40;99.90;;;;;;5093681;28;20028;-75
2023/01/30 02:25:44;;;;;;;22.97;10.00;;;0.40;99.90;;;;;;5095615;28;20518;-72
2023/01/30 02:28:54;;;;;;;19.50;8.73;;;0.30;99.90;;;;;;5093422;28;20912;-72
2023/01/30 02:31:46;;;;;;;22.37;10.70;;;0.30;99.90;;;;;;5062917;28;20332;-71
2023/01/30 02:34:30;;;;;;;22.85;10.10;;;0.30;99.90;;;;;;5093327;28;20035;-72
2023/01/30 02:36:58;;;;;;;21.57;9.60;;;0.30;99.90;;;;;;5094456;28;20028;-73
2023/01/30 02:39:42;;;;;;;21.90;9.60;;;0.30;99.90;;;;;;5094984;28;20024;-72
2023/01/30 02:42:18;;;;;;;23.47;9.43;;;0.20;99.90;;;;;;5092978;28;20020;-72
2023/01/30 02:44:53;;;;;;;19.73;9.60;;;0.10;99.90;;;;;;5094889;28;20491;-72
2023/01/30 02:47:43;;;;;;;22.33;9.73;;;0.10;99.90;;;;;;5093266;28;20028;-73
2023/01/30 02:50:21;;;;;;;20.83;9.10;;;0.00;99.90;;;;;;5093608;28;20040;-72
2023/01/30 02:52:47;;;;;;;21.67;10.33;;;0.00;99.90;;;;;;5094798;28;20032;-72
2023/01/30 02:55:22;;;;;;;22.73;10.23;;;0.00;99.90;;;;;;5078965;28;20031;-72
2023/01/30 02:57:48;;;;;;;22.90;9.90;;;0.00;99.90;;;;;;5074743;28;20035;-72
2023/01/30 03:00:20;;;;;;;19.80;9.80;;;0.00;99.90;;;;;;5072184;28;20033;-73
2023/01/30 03:03:14;;;;;;;20.73;9.02;;;0.10;99.90;;;;;;5072956;28;20043;-73
2023/01/30 03:05:56;;;;;;;21.43;9.53;;;0.10;99.90;;;;;;5074438;28;20074;-72
2023/01/30 03:09:13;;;;;;;19.75;8.88;;;0.20;99.90;;;;;;5072866;28;20028;-73
2023/01/30 03:12:07;;;;;;;18.53;8.23;;;0.20;99.90;;;;;;5031053;28;20103;-73
2023/01/30 03:14:43;;;;;;;18.93;8.30;;;0.30;99.90;;;;;;5072613;28;20024;-72
2023/01/30 03:17:10;;;;;;;19.47;8.63;;;0.30;99.90;;;;;;5071848;28;20431;-73
2023/01/30 03:19:36;;;;;;;19.77;8.80;;;0.40;99.90;;;;;;5075796;28;20048;-73
2023/01/30 03:22:02;;;;;;;22.60;8.70;;;0.40;99.90;;;;;;5075009;28;20168;-73
2023/01/30 03:24:28;;;;;;;18.50;8.93;;;0.40;99.90;;;;;;5075856;28;20028;-73
2023/01/30 03:27:04;;;;;;;18.20;9.10;;;0.40;99.90;;;;;;5075842;28;20227;-74
2023/01/30 03:29:30;;;;;;;19.07;8.90;;;0.50;99.90;;;;;;5093902;28;20032;-73
2023/01/30 03:31:55;;;;;;;18.80;9.00;;;0.50;99.90;;;;;;5093511;28;20031;-74
2023/01/30 03:34:21;;;;;;;18.60;8.50;;;0.50;99.90;;;;;;5075050;28;20036;-73
2023/01/30 03:36:47;;;;;;;19.43;9.20;;;0.50;99.90;;;;;;5075644;28;20034;-73
2023/01/30 03:39:13;;;;;;;19.37;9.33;;;0.50;99.90;;;;;;5092765;28;20470;-73
2023/01/30 03:41:38;;;;;;;20.50;9.17;;;0.50;99.90;;;;;;5075515;28;20035;-72
2023/01/30 03:44:04;;;;;;;19.53;8.37;;;0.60;99.90;;;;;;5080889;28;20036;-73
2023/01/30 03:46:30;;;;;;;19.83;9.03;;;0.60;99.90;;;;;;5084229;28;20024;-72
2023/01/30 03:48:56;;;;;;;19.23;9.20;;;0.60;99.90;;;;;;5102501;28;20031;-73
2023/01/30 03:51:21;;;;;;;17.50;8.87;;;0.60;99.90;;;;;;5093782;28;20020;-73
2023/01/30 03:53:47;;;;;;;18.67;8.90;;;0.60;99.90;;;;;;5075136;28;20039;-73
2023/01/30 03:56:13;;;;;;;21.27;9.20;;;0.60;99.90;;;;;;5092773;28;20035;-73
2023/01/30 03:58:38;;;;;;;17.80;8.80;;;0.60;99.90;;;;;;5093180;28;20028;-73
2023/01/30 04:01:04;;;;;;;19.00;9.13;;;0.60;99.90;;;;;;5074136;28;20043;-73
2023/01/30 04:03:30;;;;;;;18.93;9.10;;;0.60;99.90;;;;;;5074835;28;20089;-73
2023/01/30 04:05:55;;;;;;;18.93;8.93;;;0.70;99.90;;;;;;5074486;28;20028;-74
2023/01/30 04:08:21;;;;;;;19.90;8.77;;;0.70;99.90;;;;;;5092470;28;20024;-73
2023/01/30 04:10:46;;;;;;;19.07;9.20;;;0.70;99.90;;;;;;5092925;28;20024;-73
2023/01/30 04:13:12;;;;;;;16.50;8.50;;;0.70;99.90;;;;;;5092240;28;20024;-73
2023/01/30 04:15:37;;;;;;;15.70;8.87;;;0.80;99.90;;;;;;5092990;28;20066;-73
2023/01/30 04:18:03;;;;;;;18.53;9.30;;;0.80;99.90;;;;;;5092238;28;20506;-73
2023/01/30 04:20:29;;;;;;;18.10;8.90;;;0.70;99.90;;;;;;5074637;28;20044;-73
2023/01/30 04:22:57;;;;;;;17.97;8.43;;;0.80;99.90;;;;;;5072393;28;20377;-73
2023/01/30 04:25:22;;;;;;;16.77;8.33;;;0.80;99.90;;;;;;5092172;28;20085;-73
2023/01/30 04:27:48;;;;;;;18.67;8.70;;;0.80;99.90;;;;;;5090377;28;20020;-72
2023/01/30 04:30:14;;;;;;;17.07;8.53;;;0.80;99.90;;;;;;5112120;28;20045;-72
2023/01/30 04:32:39;;;;;;;16.40;8.17;;;0.80;99.90;;;;;;5074148;28;20465;-72
2023/01/30 04:35:05;;;;;;;18.07;8.60;;;0.80;99.90;;;;;;5089933;28;20027;-72
2023/01/30 04:37:31;;;;;;;17.17;9.00;;;0.90;99.90;;;;;;5094214;28;20384;-72
2023/01/30 04:39:56;;;;;;;16.70;8.07;;;0.90;99.90;;;;;;5094744;28;20380;-72
2023/01/30 04:42:22;;;;;;;15.67;7.43;;;0.90;99.90;;;;;;5088092;28;20076;-72
2023/01/30 04:44:47;;;;;;;17.67;8.03;;;0.90;99.90;;;;;;5094457;28;20419;-72
2023/01/30 04:47:13;;;;;;;16.93;8.40;;;0.90;99.90;;;;;;5094771;28;20070;-72
2023/01/30 04:49:38;;;;;;;16.83;8.43;;;0.90;99.90;;;;;;5107956;28;20473;-72
2023/01/30 04:52:04;;;;;;;16.40;8.50;;;0.90;99.90;;;;;;5099078;28;20096;-72
2023/01/30 04:54:30;;;;;;;15.37;7.77;;;0.90;99.90;;;;;;5094308;28;20019;-73
2023/01/30 04:56:56;;;;;;;16.50;8.20;;;0.90;99.90;;;;;;5078911;28;20028;-72
2023/01/30 04:59:22;;;;;;;19.53;8.33;;;0.90;99.90;;;;;;5092052;28;20139;-72
2023/01/30 05:01:48;;;;;;;16.07;8.17;;;0.90;99.90;;;;;;5106855;28;20031;-72
2023/01/30 05:04:13;;;;;;;18.47;8.20;;;0.90;99.90;;;;;;5081947;28;20028;-73
2023/01/30 05:06:39;;;;;;;15.63;7.90;;;0.90;99.90;;;;;;5099066;28;20028;-73
2023/01/30 05:09:05;;;;;;;14.57;7.63;;;0.90;99.90;;;;;;5107408;28;20067;-73
2023/01/30 05:11:31;;;;;;;15.90;7.90;;;0.90;99.90;;;;;;5095337;28;20019;-72
2023/01/30 05:13:56;;;;;;;18.30;7.77;;;0.90;99.90;;;;;;5087269;28;20046;-73
2023/01/30 05:16:23;;;;;;;15.50;6.87;;;0.90;99.90;;;;;;5101774;28;20031;-72
2023/01/30 05:18:49;;;;;;;13.60;7.43;;;0.90;99.90;;;;;;5080763;28;20048;-73
2023/01/30 05:21:21;;;;;;;14.97;7.90;;;0.90;99.90;;;;;;5077208;28;20392;-73
2023/01/30 05:23:47;;;;;;;16.85;7.78;;;0.90;99.90;;;;;;5093407;28;20024;-72
2023/01/30 05:26:14;;;;;;;16.17;7.50;;;0.90;99.90;;;;;;5085798;28;20512;-73
2023/01/30 05:28:40;;;;;;;14.23;6.97;;;0.90;99.90;;;;;;5097493;28;20028;-72
2023/01/30 05:31:09;;;;;;;17.67;7.93;;;0.90;99.90;;;;;;5080251;28;20055;-73
2023/01/30 05:33:35;;;;;;;16.63;7.77;;;0.80;99.90;;;;;;5099312;28;20032;-73
2023/01/30 05:36:00;;;;;;;18.13;7.80;;;0.80;99.90;;;;;;5097537;28;20028;-75
2023/01/30 05:38:26;;;;;;;15.53;6.90;;;0.80;99.90;;;;;;5085942;28;20028;-72
2023/01/30 05:41:00;;;;;;;13.50;6.77;;;0.80;99.90;;;;;;5077444;28;20384;-72
2023/01/30 05:43:26;;;;;;;16.33;7.63;;;0.80;99.90;;;;;;5093364;28;20027;-72
2023/01/30 05:45:53;;;;;;;15.97;6.97;;;0.80;99.90;;;;;;5083385;28;20027;-73
2023/01/30 05:48:19;;;;;;;16.13;7.70;;;0.80;99.90;;;;;;5096581;28;20023;-71
2023/01/30 05:50:45;;;;;;;17.67;7.63;;;0.80;99.90;;;;;;5102557;28;20388;-75
2023/01/30 05:53:10;;;;;;;19.43;8.33;;;0.80;99.90;;;;;;5106993;28;20039;-75
2023/01/30 05:55:36;;;;;;;15.13;7.57;;;0.70;99.90;;;;;;5097510;28;20023;-72
2023/01/30 05:58:02;;;;;;;15.73;6.93;;;0.70;99.90;;;;;;5107298;28;20020;-74
2023/01/30 06:00:27;;;;;;;15.90;7.67;;;0.70;99.90;;;;;;5087718;28;20065;-72
2023/01/30 06:02:53;;;;;;;14.83;7.37;;;0.70;99.90;;;;;;5082591;28;20128;-73
2023/01/30 06:05:18;;;;;;;17.40;7.37;;;0.70;99.90;;;;;;5094690;28;20027;-73
2023/01/30 06:07:44;;;;;;;17.53;7.87;;;0.70;99.90;;;;;;5097248;28;20507;-73
2023/01/30 06:10:10;;;;;;;19.23;8.67;;;0.70;99.90;;;;;;5087798;28;20388;-73
2023/01/30 06:12:35;;;;;;;13.90;7.63;;;0.70;99.90;;;;;;5076925;28;20032;-72
2023/01/30 06:15:01;;;;;;;14.83;7.50;;;0.70;99.90;;;;;;5092607;28;20020;-72
2023/01/30 06:17:27;;;;;;;16.10;7.60;;;0.70;99.90;;;;;;5079855;28;20035;-72
2023/01/30 06:19:52;;;;;;;15.27;7.13;;;0.70;99.90;;;;;;5093480;28;20040;-73
2023/01/30 06:22:18;;;;;;;17.47;7.47;;;0.70;99.90;;;;;;5084218;28;20047;-72
2023/01/30 06:24:43;;;;;;;16.27;7.37;;;0.70;99.90;;;;;;5086731;28;20034;-72
2023/01/30 06:27:09;;;;;;;16.67;7.43;;;0.70;99.90;;;;;;5092751;28;20058;-72
2023/01/30 06:29:34;;;;;;;15.43;7.20;;;0.70;99.90;;;;;;5090600;28;20028;-72
2023/01/30 06:32:00;;;;;;;14.63;7.03;;;0.70;99.90;;;;;;5073227;28;20367;-72
2023/01/30 06:34:25;;;;;;;16.10;7.53;;;0.70;99.90;;;;;;5082838;28;20036;-72
2023/01/30 06:36:51;;;;;;;18.13;7.63;;;0.70;99.90;;;;;;5078749;28;20023;-72
2023/01/30 06:39:16;;;;;;;17.80;7.40;;;0.70;99.90;;;;;;5090108;28;20024;-72
2023/01/30 06:41:42;;;;;;;16.30;7.47;;;0.70;99.90;;;;;;5093482;28;20112;-72
2023/01/30 06:44:08;;;;;;;15.67;7.50;;;0.80;99.90;;;;;;5085029;28;20087;-72
2023/01/30 06:46:34;;;;;;;13.73;7.07;;;0.70;99.90;;;;;;5085891;28;20032;-72
2023/01/30 06:48:59;;;;;;;16.47;6.60;;;0.70;99.90;;;;;;5092915;28;20094;-72
2023/01/30 06:51:26;;;;;;;18.17;8.40;;;0.70;99.90;;;;;;5075390;28;20399;-72
2023/01/30 06:53:52;;;;;;;16.50;7.40;;;0.80;99.90;;;;;;5092610;28;20020;-72
2023/01/30 06:56:18;;;;;;;18.97;7.37;;;0.70;99.90;;;;;;5082406;28;20025;-73
2023/01/30 06:58:44;;;;;;;17.23;7.20;;;0.70;99.90;;;;;;5085592;28;20074;-72
2023/01/30 07:01:10;;;;;;;15.63;7.60;;;0.70;99.90;;;;;;5075333;28;20028;-73
2023/01/30 07:03:35;;;;;;;16.13;7.60;;;0.70;99.90;;;;;;5090171;28;20086;-72
2023/01/30 07:06:01;;;;;;;14.53;7.03;;;0.70;99.90;;;;;;5079803;28;20030;-73
2023/01/30 07:08:27;;;;;;;16.77;7.70;;;0.80;99.90;;;;;;5091730;28;20132;-72
2023/01/30 07:10:52;;;;;;;13.20;6.53;;;0.80;99.90;;;;;;5079091;28;20466;-72
2023/01/30 07:13:18;;;;;;;14.77;6.93;;;0.80;99.90;;;;;;5090953;28;20524;-73
2023/01/30 07:15:44;;;;;;;14.93;7.70;;;0.90;99.90;;;;;;5088785;28;20474;-72
2023/01/30 07:18:10;;;;;;;14.47;7.20;;;0.90;99.90;;;;;;5080852;28;20032;-73
2023/01/30 07:20:36;;;;;;;12.77;6.57;;;0.90;99.90;;;;;;5083068;28;20131;-72
2023/01/30 07:23:02;;;;;;;14.00;6.77;;;0.90;99.90;;;;;;5093074;28;20042;-72
2023/01/30 07:25:29;;;;;;;15.77;6.87;;;0.90;99.90;;;;;;5074566;28;20028;-72
2023/01/30 07:27:56;;;;;;;14.77;6.80;;;0.90;99.90;;;;;;5093279;28;20157;-71
2023/01/30 07:30:22;;;;;;;14.77;7.03;;;0.90;99.90;;;;;;5074445;28;20050;-72
2023/01/30 07:32:56;;;;;;;17.40;7.13;;;0.90;99.90;;;;;;5075427;28;20123;-72
2023/01/30 07:35:22;;;;;;;11.77;6.50;;;0.90;99.90;;;;;;5092808;28;20036;-72
2023/01/30 07:37:49;;;;;;;13.57;6.93;;;0.90;99.90;;;;;;5074604;28;20032;-72
2023/01/30 07:40:15;;;;;;;16.87;7.37;;;0.90;99.90;;;;;;5092127;28;20028;-73
2023/01/30 07:42:41;;;;;;;13.77;7.00;;;0.90;99.90;;;;;;5074522;28;20024;-72
2023/01/30 07:45:08;;;;;;;14.63;7.50;;;0.80;99.90;;;;;;5074749;28;20115;-75
2023/01/30 07:47:33;;;;;;;17.03;7.17;;;0.90;99.90;;;;;;5074526;28;20487;-72
2023/01/30 07:49:59;;;;;;;16.50;7.43;;;0.80;99.90;;;;;;5074297;28;20051;-72
2023/01/30 07:52:25;;;;;;;17.00;7.10;;;0.90;99.90;;;;;;5074109;28;20641;-72
2023/01/30 07:54:50;;;;;;;16.40;6.37;;;0.80;99.90;;;;;;5093045;28;20058;-72
2023/01/30 07:57:16;;;;;;;17.00;7.70;;;0.80;99.90;;;;;;5073785;28;20119;-72
2023/01/30 07:59:41;;;;;;;14.47;6.80;;;0.80;99.90;;;;;;5092564;28;20024;-73
2023/01/30 08:02:11;;;;;;;13.20;6.40;;;0.90;99.90;;;;;;5092150;28;20028;-74
2023/01/30 08:04:37;;;;;;;15.87;7.70;;;0.80;99.90;;;;;;5074781;28;20024;-72
2023/01/30 08:07:02;;;;;;;13.67;7.20;;;0.80;99.90;;;;;;5074527;28;20032;-73
2023/01/30 08:09:28;;;;;;;13.30;6.67;;;0.80;99.90;;;;;;5091765;28;20020;-73
2023/01/30 08:11:54;;;;;;;14.00;7.10;;;0.80;99.90;;;;;;5074275;28;20020;-75
2023/01/30 08:14:19;;;;;;;13.03;6.50;;;0.80;99.90;;;;;;5074033;28;20158;-75
2023/01/30 08:16:45;;;;;;;11.27;6.10;;;0.80;99.90;;;;;;5074586;28;20028;-72
2023/01/30 08:19:10;;;;;;;15.93;6.87;;;0.80;99.90;;;;;;5077089;28;20044;-73
2023/01/30 08:21:36;;;;;;;14.40;7.00;;;0.90;99.90;;;;;;5104729;28;20028;-72
2023/01/30 08:24:02;;;;;;;14.13;6.73;;;0.80;99.90;;;;;;5085306;28;20027;-73
2023/01/30 08:26:27;;;;;;;17.37;7.13;;;0.90;99.90;;;;;;5090807;28;20058;-73
2023/01/30 08:28:54;;;;;;;16.17;7.53;;;0.90;99.90;;;;;;5094341;28;20082;-74
2023/01/30 08:31:20;;;;;;;15.47;7.07;;;0.90;99.90;;;;;;5108933;28;20023;-73
2023/01/30 08:33:47;;;;;;;13.87;6.93;;;0.90;99.90;;;;;;5094431;28;20031;-73
2023/01/30 08:36:13;;;;;;;15.03;7.27;;;0.90;99.90;;;;;;5109010;28;20023;-73
2023/01/30 08:38:38;;;;;;;17.33;7.50;;;1.00;99.90;;;;;;5091415;28;20388;-73
2023/01/30 08:41:06;;;;;;;18.20;6.87;;;1.00;99.90;;;;;;5094265;28;20028;-73
2023/01/30 08:43:32;;;;;;;12.93;6.13;;;1.00;99.90;;;;;;5093513;28;20105;-72
2023/01/30 08:45:58;;;;;;;14.50;7.00;;;1.00;99.90;;;;;;5094535;28;20485;-73
2023/01/30 08:48:23;;;;;;;15.47;7.07;;;1.00;99.90;;;;;;5083584;28;20024;-73
2023/01/30 08:50:53;;;;;;;12.97;6.27;;;1.00;99.90;;;;;;5087447;28;20030;-73
2023/01/30 08:53:19;;;;;;;16.17;7.50;;;1.00;99.90;;;;;;5080536;28;20032;-73
2023/01/30 08:55:45;;;;;;;16.13;7.10;;;1.00;99.90;;;;;;5093941;28;20069;-73
2023/01/30 08:58:11;;;;;;;16.37;7.27;;;1.00;99.90;;;;;;5111712;28;20032;-73
2023/01/30 09:00:38;;;;;;;18.00;7.90;;;1.00;99.90;;;;;;5100655;28;20039;-74
2023/01/30 09:03:04;;;;;;;14.20;6.90;;;1.00;99.90;;;;;;5089266;28;20501;-73
2023/01/30 09:05:29;;;;;;;14.37;7.20;;;1.00;99.90;;;;;;5111759;28;20092;-73
2023/01/30 09:07:55;;;;;;;15.93;7.10;;;1.00;99.90;;;;;;5106171;28;20020;-73
2023/01/30 09:10:23;;;;;;;14.47;7.07;;;1.00;99.90;;;;;;5082893;28;20423;-74
2023/01/30 09:12:48;;;;;;;16.50;7.40;;;1.00;99.90;;;;;;5080388;28;20028;-73
2023/01/30 09:15:14;;;;;;;13.70;6.50;;;1.10;99.90;;;;;;5108457;28;20042;-74
2023/01/30 09:17:39;;;;;;;13.70;6.53;;;1.10;99.90;;;;;;5093413;28;20020;-73
2023/01/30 09:20:07;;;;;;;15.87;7.20;;;1.10;99.90;;;;;;5081384;28;20047;-73
2023/01/30 09:22:32;;;;;;;16.00;7.07;;;1.20;99.90;;;;;;5092868;28;20084;-72
2023/01/30 09:24:58;;;;;;;14.93;7.47;;;1.20;99.90;;;;;;5112575;28;20031;-73
2023/01/30 09:27:24;;;;;;;17.90;7.80;;;1.30;99.90;;;;;;5093369;28;20169;-74
2023/01/30 09:29:49;;;;;;;14.77;6.77;;;1.30;99.90;;;;;;5109292;28;20485;-75
2023/01/30 09:32:15;;;;;;;16.73;6.90;;;1.30;99.90;;;;;;5083145;28;20028;-76
2023/01/30 09:34:41;;;;;;;15.90;7.40;;;1.30;99.90;;;;;;5081258;28;20028;-78
2023/01/30 09:37:07;;;;;;;15.50;7.10;;;1.30;99.90;;;;;;5083549;28;20020;-76
2023/01/30 09:39:32;;;;;;;15.23;6.83;;;1.40;99.90;;;;;;5081437;28;20374;-76
2023/01/30 09:42:04;;;;;;;16.77;7.30;;;1.40;99.90;;;;;;5092049;28;20027;-76
2023/01/30 09:45:07;;;;;;;16.85;8.05;;;1.40;99.90;;;;;;5092110;28;20576;-76
2023/01/30 09:47:39;;;;;;;14.60;7.20;;;1.40;99.90;;;;;;5079509;28;20035;-77
2023/01/30 09:50:19;;;;;;;14.73;6.60;;;1.50;99.90;;;;;;5099736;28;20088;-74
2023/01/30 09:53:16;;;;;;;14.70;7.07;;;1.50;99.90;;;;;;5089913;28;20097;-74
2023/01/30 09:55:43;;;;;;;14.83;6.50;;;1.60;99.90;;;;;;5042758;28;20119;-74
2023/01/30 09:58:21;;;;;;;16.43;7.77;;;1.60;99.90;;;;;;5087788;28;20015;-74
2023/01/30 10:00:51;;;;;;;15.53;6.77;;;1.60;99.90;;;;;;5078059;28;20108;-79
2023/01/30 10:03:21;;;;;;;15.70;7.23;;;1.60;99.90;;;;;;5074101;28;20046;-75
2023/01/30 10:05:54;;;;;;;13.93;7.10;;;1.60;99.90;;;;;;5093549;28;20477;-74
2023/01/30 10:08:49;;;;;;;18.13;8.33;;;1.50;99.90;;;;;;5092162;28;20089;-75
2023/01/30 10:11:37;;;;;;;16.20;6.77;;;1.60;99.90;;;;;;5089989;28;20542;-77
2023/01/30 10:14:35;;;;;;;13.60;6.37;;;1.70;99.90;;;;;;5079721;28;20114;-75
2023/01/30 10:17:52;;;;;;;13.63;6.60;;;1.70;99.90;;;;;;5087509;28;20020;-74
2023/01/30 10:20:30;;;;;;;14.90;6.47;;;1.70;99.90;;;;;;5044515;28;20537;-75
2023/01/30 10:23:22;;;;;;;16.70;7.37;;;1.70;99.90;;;;;;5090200;28;20031;-75
2023/01/30 10:25:54;;;;;;;15.32;6.80;;;1.70;99.90;;;;;;5093325;28;20082;-74
2023/01/30 10:28:39;;;;;;;14.88;6.45;;;1.70;99.90;;;;;;5085526;28;20039;-76
2023/01/30 10:31:11;;;;;;;16.07;7.13;;;1.70;99.90;;;;;;5089548;28;20118;-73
2023/01/30 10:34:04;;;;;;;13.98;7.13;;;1.70;99.90;;;;;;5094733;28;20093;-76
2023/01/30 10:36:32;;;;;;;13.90;6.30;;;1.80;99.90;;;;;;5084768;28;20024;-75
2023/01/30 10:39:01;;;;;;;14.27;6.77;;;1.80;99.90;;;;;;5083459;28;20115;-77
2023/01/30 10:41:42;;;;;;;14.47;6.43;;;1.80;99.90;;;;;;5071390;28;20386;-76
2023/01/30 10:44:11;;;;;;;16.00;6.80;;;1.80;99.90;;;;;;5085917;28;20377;-77
2023/01/30 10:46:59;;;;;;;15.50;6.80;;;1.80;99.90;;;;;;5092064;28;20028;-75
2023/01/30 10:49:24;;;;;;;13.87;7.40;;;1.80;99.90;;;;;;5091512;28;20046;-75
2023/01/30 10:51:52;;;;;;;15.70;7.13;;;1.80;99.90;;;;;;5086892;28;20866;-76
2023/01/30 10:54:27;;;;;;;19.63;7.47;;;1.80;99.90;;;;;;5093270;28;20060;-76
2023/01/30 10:56:58;;;;;;;15.23;6.73;;;1.80;99.90;;;;;;5092789;28;20024;-76
2023/01/30 10:59:51;;;;;;;15.25;6.93;;;1.80;99.90;;;;;;5092721;28;20032;-77
2023/01/30 11:02:32;;;;;;;14.40;6.43;;;1.90;99.90;;;;;;5082083;28;20481;-76
2023/01/30 11:05:24;;;;;;;15.23;7.03;;;1.90;99.90;;;;;;5092906;28;20039;-75
2023/01/30 11:07:50;;;;;;;20.30;7.45;;;1.80;99.90;;;;;;5070096;28;20056;-75
2023/01/30 11:10:21;;;;;;;14.43;6.43;;;1.80;99.90;;;;;;5084416;28;20075;-78
2023/01/30 11:12:51;;;;;;;17.23;6.55;;;1.80;99.90;;;;;;5074040;28;20031;-76
2023/01/30 11:15:17;;;;;;;18.90;7.57;;;1.90;99.90;;;;;;5083875;28;20053;-77
2023/01/30 11:17:44;;;;;;;16.10;7.07;;;1.90;99.90;;;;;;5079327;28;20024;-76
2023/01/30 11:20:23;;;;;;;15.57;7.77;;;1.90;99.90;;;;;;5092464;28;20047;-75
2023/01/30 11:23:04;;;;;;;16.23;7.07;;;1.90;99.90;;;;;;5093763;28;20024;-76
2023/01/30 11:25:30;;;;;;;18.05;7.68;;;1.90;99.90;;;;;;5089172;28;20104;-74
2023/01/30 11:28:01;;;;;;;16.77;7.87;;;1.90;99.90;;;;;;5091793;28;20540;-75
2023/01/30 11:30:34;;;;;;;15.47;7.33;;;1.90;99.90;;;;;;5074837;28;20032;-76
2023/01/30 11:33:10;;;;;;;16.83;7.53;;;1.90;99.90;;;;;;5086100;28;20029;-75
2023/01/30 11:35:56;;;;;;;18.70;8.13;;;1.90;99.90;;;;;;5089409;28;20031;-77
2023/01/30 11:38:29;;;;;;;16.43;7.70;;;1.90;99.90;;;;;;5091645;28;20480;-76
2023/01/30 11:41:19;;;;;;;16.17;7.40;;;1.90;99.90;;;;;;5082530;28;20024;-78
2023/01/30 11:43:46;;;;;;;16.40;7.03;;;1.90;99.90;;;;;;5092469;28;20074;-75
2023/01/30 11:46:16;;;;;;;17.10;6.97;;;1.90;99.90;;;;;;5091595;28;20031;-76
2023/01/30 11:48:48;;;;;;;15.97;7.23;;;1.80;99.90;;;;;;5077329;28;20529;-76
2023/01/30 11:51:14;;;;;;;14.10;5.50;;;1.80;99.90;;;;;;5083817;28;20028;-77
2023/01/30 11:53:53;;;;;;;16.27;7.13;;;1.80;99.90;;;;;;5084707;28;20035;-76
2023/01/30 11:56:34;;;;;;;20.30;7.90;;;1.80;99.90;;;;;;5089606;28;20035;-78
2023/01/30 11:59:18;;;;;;;15.03;7.50;;;1.80;99.90;;;;;;5079456;28;20174;-77
2023/01/30 12:01:43;;;;;;;18.43;7.73;;;1.80;99.90;;;;;;5078814;28;20542;-77
2023/01/30 12:04:11;;;;;;;15.60;7.40;;;1.80;99.90;;;;;;5089528;28;20124;-77
2023/01/30 12:06:40;;;;;;;18.07;7.67;;;1.90;99.90;;;;;;5091979;28;20035;-78
2023/01/30 12:09:26;;;;;;;18.77;7.80;;;1.80;99.90;;;;;;5093971;28;20035;-78
2023/01/30 12:11:51;;;;;;;18.17;8.13;;;1.80;99.90;;;;;;5093485;28;20027;-77
2023/01/30 12:14:33;;;;;;;19.30;8.77;;;1.90;99.90;;;;;;5090180;28;20042;-77
2023/01/30 12:17:21;;;;;;;18.90;8.43;;;1.80;99.90;;;;;;5072911;28;20024;-76
2023/01/30 12:20:23;;;;;;;17.97;7.57;;;1.80;99.90;;;;;;5086294;28;20055;-75
2023/01/30 12:22:59;;;;;;;16.52;7.43;;;1.90;99.90;;;;;;5072820;28;20036;-75
2023/01/30 12:25:34;;;;;;;19.03;8.50;;;1.90;99.90;;;;;;5093159;28;20426;-76
2023/01/30 12:28:12;;;;;;;22.37;8.20;;;1.90;99.90;;;;;;5091933;28;20028;-76
2023/01/30 12:30:58;;;;;;;18.73;8.17;;;1.90;99.90;;;;;;5090621;28;20384;-77
2023/01/30 12:33:28;;;;;;;16.50;7.33;;;1.90;99.90;;;;;;5085442;28;20036;-76
2023/01/30 12:36:26;;;;;;;21.17;8.60;;;1.90;99.90;;;;;;5085917;28;20020;-75
2023/01/30 12:38:51;;;;;;;17.57;8.07;;;1.90;99.90;;;;;;5078310;28;20024;-75
2023/01/30 12:41:52;;;;;;;16.17;7.30;;;2.00;99.90;;;;;;5091316;28;20537;-78
2023/01/30 12:44:51;;;;;;;17.97;7.60;;;1.90;99.90;;;;;;5071894;28;20044;-78
2023/01/30 12:47:46;;;;;;;19.97;7.77;;;2.00;99.90;;;;;;5080599;28;20071;-78
2023/01/30 12:50:30;;;;;;;17.17;7.20;;;2.00;99.90;;;;;;5059754;28;20035;-77
2023/01/30 12:53:28;;;;;;;18.70;8.23;;;2.00;99.90;;;;;;5084877;28;20071;-76
2023/01/30 12:56:18;;;;;;;18.60;7.90;;;2.00;99.90;;;;;;5087038;28;20112;-75
2023/01/30 12:59:24;;;;;;;17.90;7.97;;;2.00;99.90;;;;;;5091524;28;20090;-74
2023/01/30 13:02:13;;;;;;;16.73;7.63;;;2.00;99.90;;;;;;5092559;28;20115;-75
2023/01/30 13:05:08;;;;;;;17.33;7.63;;;2.10;99.90;;;;;;5071220;28;20029;-74
2023/01/30 13:07:51;;;;;;;17.30;7.90;;;2.10;99.90;;;;;;5070320;28;20633;-75
2023/01/30 13:10:43;;;;;;;16.67;7.43;;;2.10;99.90;;;;;;5088252;28;20476;-78
2023/01/30 13:13:29;;;;;;;15.17;7.00;;;2.20;99.90;;;;;;5065134;28;20085;-74